Terminal Aerodrome Forecast
Issued by NWS

Home | Current Version | Previous Version | Text Only | Print | Product List | Glossary On
Versions: 1 2 3 4 5 6 7 8 9 10 11 12 13
000
FTUS45 KRIW 260500
TAFBPI
TAF
KBPI 260527Z 2606/2706 01006KT 6SM -SN BKN025
     FM261200 VRB05KT P6SM BKN040
     FM270500 33005KT P6SM SCT040=

USA.gov is the U.S. government's official web portal to all federal, state and local government web resources and services.